createdAt,value
2019-01-05T00:02:28.330Z,31.40
2019-01-05T00:05:36.770Z,32.93
2019-01-05T00:08:44.964Z,34.37
2019-01-05T00:14:41.699Z,36.63
2019-01-05T00:20:42.040Z,38.33
2019-01-05T00:24:09.474Z,36.20
2019-01-05T00:27:09.726Z,49.17
2019-01-05T00:33:36.763Z,56.63
2019-01-05T00:36:23.791Z,59.27
2019-01-05T00:45:25.531Z,41.70
2019-01-05T00:48:26.758Z,44.87
2019-01-05T00:51:28.212Z,44.87
2019-01-05T00:54:12.189Z,48.73
2019-01-05T00:57:41.051Z,50.67
2019-01-05T01:00:41.931Z,49.13
2019-01-05T01:03:42.191Z,48.47
2019-01-05T01:09:52.887Z,47.30
2019-01-05T01:13:01.122Z,46.23
2019-01-05T01:16:01.909Z,47.30
2019-01-05T01:22:01.111Z,52.47
2019-01-05T01:25:09.189Z,52.97
2019-01-05T01:34:19.377Z,43.60
2019-01-05T01:40:35.262Z,38.97
2019-01-05T01:43:36.191Z,39.70
2019-01-05T01:46:23.098Z,37.57
2019-01-05T01:49:31.175Z,42.27
2019-01-05T01:52:15.681Z,45.50
2019-01-05T01:55:23.903Z,40.97
2019-01-05T01:58:25.457Z,37.37
2019-01-05T02:01:33.635Z,41.37
2019-01-05T02:04:16.857Z,38.53
2019-01-05T02:13:32.140Z,35.10
2019-01-05T02:17:00.992Z,39.67
2019-01-05T02:20:47.580Z,38.37
2019-01-05T02:23:35.082Z,27.70
2019-01-05T02:27:03.950Z,26.87
2019-01-05T02:30:32.822Z,32.37
2019-01-05T02:33:17.773Z,38.73
2019-01-05T02:36:46.570Z,34.07
2019-01-05T02:40:15.386Z,36.90
2019-01-05T02:44:02.013Z,36.97
2019-01-05T02:47:33.515Z,36.63
2019-01-05T02:54:24.195Z,32.37
2019-01-05T02:58:10.786Z,30.30
2019-01-05T03:04:33.278Z,30.53
2019-01-05T03:07:41.610Z,30.27
2019-01-05T03:11:10.460Z,31.87
2019-01-05T03:14:39.597Z,59.70
2019-01-05T03:18:26.326Z,42.57
2019-01-05T03:22:12.915Z,42.00
2019-01-05T03:31:51.629Z,45.97
2019-01-05T03:35:20.398Z,47.33
2019-01-05T03:42:00.720Z,38.03
2019-01-05T03:45:29.640Z,39.07
2019-01-05T03:48:14.632Z,36.60
2019-01-05T03:55:17.671Z,35.20
2019-01-05T03:58:17.240Z,35.30
2019-01-05T04:02:03.824Z,36.47
2019-01-05T04:05:24.291Z,29.07
2019-01-05T04:09:10.875Z,30.43
2019-01-05T04:12:16.454Z,29.77
2019-01-05T04:15:45.247Z,28.50
2019-01-05T04:19:05.696Z,30.10
2019-01-05T04:22:34.496Z,30.97
2019-01-05T04:25:36.916Z,28.37
2019-01-05T04:32:15.014Z,33.63
2019-01-05T04:35:43.812Z,30.90
2019-01-05T04:38:49.264Z,27.70
2019-01-05T04:49:26.508Z,27.83
2019-01-05T04:52:55.317Z,28.23
2019-01-05T04:56:24.174Z,29.43
2019-01-05T04:59:52.982Z,30.00
2019-01-05T05:02:55.361Z,28.53
2019-01-05T05:06:41.946Z,28.23
2019-01-05T05:09:44.416Z,25.93
2019-01-05T05:16:43.394Z,27.13
2019-01-05T05:20:12.191Z,27.43
2019-01-05T05:22:57.154Z,25.97
2019-01-05T05:29:48.459Z,26.27
2019-01-05T05:32:54.023Z,25.87
2019-01-05T05:42:53.296Z,24.63
2019-01-05T05:46:22.440Z,25.00
2019-01-05T05:53:59.575Z,26.57
2019-01-05T05:57:28.715Z,28.37
2019-01-05T06:01:15.444Z,28.07
2019-01-05T06:04:20.860Z,26.43
2019-01-05T06:07:28.876Z,26.63
2019-01-05T06:10:57.685Z,26.00
2019-01-05T06:18:00.759Z,25.97
2019-01-05T06:21:05.857Z,29.10
2019-01-05T06:24:52.449Z,27.40
2019-01-05T06:27:57.809Z,27.63
2019-01-05T06:31:06.334Z,28.77
2019-01-05T06:34:35.199Z,29.43
2019-01-05T06:37:40.529Z,27.53
2019-01-05T06:41:09.370Z,27.73
2019-01-05T06:44:55.961Z,30.70
2019-01-05T06:48:25.103Z,43.80
2019-01-05T06:52:11.706Z,40.23
2019-01-05T06:55:40.516Z,39.10
2019-01-05T06:59:09.321Z,38.37
2019-01-05T07:02:55.912Z,32.30
2019-01-05T07:06:07.372Z,42.30
2019-01-05T07:13:15.907Z,37.77
2019-01-05T07:16:36.489Z,37.77
2019-01-05T07:19:57.304Z,35.77
2019-01-05T07:23:03.583Z,48.03
2019-01-05T07:29:28.484Z,39.30
2019-01-05T07:36:39.990Z,34.73
2019-01-05T07:40:08.790Z,30.17
2019-01-05T07:43:17.110Z,26.03
2019-01-05T07:46:46.305Z,25.47
2019-01-05T07:53:39.387Z,25.03
2019-01-05T07:57:25.993Z,24.33
2019-01-05T08:00:47.213Z,28.67
2019-01-05T08:04:16.385Z,28.77
2019-01-05T08:07:25.249Z,30.53
2019-01-05T08:14:21.820Z,31.63
2019-01-05T08:18:08.743Z,32.33
2019-01-05T08:21:55.343Z,36.13
2019-01-05T08:25:24.305Z,34.87
2019-01-05T08:29:10.905Z,35.87
2019-01-05T08:32:19.524Z,36.10
2019-01-05T08:35:48.469Z,34.50
2019-01-05T08:38:56.822Z,35.30
2019-01-05T08:42:25.653Z,40.23
2019-01-05T08:45:28.422Z,45.30
2019-01-05T08:51:56.644Z,41.53
2019-01-05T08:58:49.687Z,42.60
2019-01-05T09:02:18.592Z,40.07
2019-01-05T09:06:05.180Z,37.57
2019-01-05T09:09:10.042Z,31.90
2019-01-05T09:16:03.733Z,25.60
2019-01-05T09:19:32.523Z,22.73
2019-01-05T09:22:37.159Z,23.03
2019-01-05T09:26:23.765Z,22.17
2019-01-05T09:29:25.076Z,21.57
2019-01-05T09:32:45.664Z,21.17
2019-01-05T09:36:11.398Z,20.33
2019-01-05T09:39:40.222Z,20.33
2019-01-05T09:42:25.313Z,19.23
2019-01-05T09:46:11.925Z,20.03
2019-01-05T09:49:11.800Z,21.30
2019-01-05T09:52:58.507Z,23.23
2019-01-05T09:56:03.948Z,20.83
2019-01-05T09:59:50.532Z,23.47
2019-01-05T10:03:11.315Z,21.10
2019-01-05T10:06:40.459Z,19.90
2019-01-05T10:09:48.835Z,19.60
2019-01-05T10:13:20.592Z,21.43
2019-01-05T10:16:29.435Z,21.27
2019-01-05T10:20:16.695Z,19.90
2019-01-05T10:23:25.553Z,18.40
2019-01-05T10:27:12.243Z,17.93
2019-01-05T10:37:40.541Z,17.27
2019-01-05T10:43:54.300Z,17.20
2019-01-05T10:47:25.403Z,15.93
2019-01-05T10:50:28.336Z,17.23
2019-01-05T10:57:52.777Z,16.77
2019-01-05T11:08:05.973Z,15.67
2019-01-05T11:11:52.591Z,15.53
2019-01-05T11:14:55.279Z,16.23
2019-01-05T11:18:24.076Z,16.03
2019-01-05T11:21:26.716Z,16.80
2019-01-05T11:25:13.299Z,15.57
2019-01-05T11:28:22.226Z,16.93
2019-01-05T11:32:10.531Z,20.40
2019-01-05T11:35:15.463Z,17.37
2019-01-05T11:38:36.110Z,17.07
2019-01-05T11:41:38.998Z,17.40
2019-01-05T11:45:08.130Z,16.90
2019-01-05T11:48:10.690Z,16.23
2019-01-05T11:51:16.619Z,17.50
2019-01-05T11:55:03.218Z,16.33
2019-01-05T11:58:08.574Z,16.70
2019-01-05T12:01:55.205Z,15.87
2019-01-05T12:11:47.167Z,19.33
2019-01-05T12:15:33.745Z,17.03
2019-01-05T12:18:42.642Z,16.33
2019-01-05T12:22:11.437Z,16.20
2019-01-05T12:25:14.046Z,15.07
2019-01-05T12:29:00.678Z,15.83
2019-01-05T12:32:00.631Z,15.33
2019-01-05T12:35:29.426Z,16.00
2019-01-05T12:38:37.567Z,15.77
2019-01-05T12:41:42.438Z,15.30
2019-01-05T12:44:29.917Z,14.93
2019-01-05T12:47:58.715Z,17.10
2019-01-05T12:54:40.757Z,16.00
2019-01-05T12:58:01.334Z,15.20
2019-01-05T13:01:21.984Z,16.23
2019-01-05T13:04:50.820Z,15.30
2019-01-05T13:11:50.768Z,14.47
2019-01-05T13:14:56.482Z,16.03
2019-01-05T13:18:25.287Z,15.47
2019-01-05T13:25:31.802Z,15.43
2019-01-05T13:28:34.155Z,14.33
2019-01-05T13:35:03.392Z,17.07
2019-01-05T13:38:05.569Z,13.10
2019-01-05T13:41:34.782Z,13.03
2019-01-05T13:45:21.372Z,15.63
2019-01-05T13:49:07.969Z,11.30
2019-01-05T13:52:36.778Z,10.07
2019-01-05T13:59:01.239Z,8.77
2019-01-05T14:02:03.058Z,9.57
2019-01-05T14:08:10.946Z,10.53
2019-01-05T14:11:12.236Z,11.70
2019-01-05T14:14:13.118Z,10.83
2019-01-05T14:17:06.358Z,11.50
2019-01-05T14:19:52.202Z,11.47
2019-01-05T14:23:00.385Z,11.23
2019-01-05T14:26:08.517Z,10.50
2019-01-05T14:29:16.620Z,11.43
2019-01-05T14:32:24.718Z,11.10
2019-01-05T14:35:32.916Z,11.93
2019-01-05T14:38:41.059Z,11.93
2019-01-05T14:41:49.162Z,12.93
2019-01-05T14:44:35.469Z,15.90
2019-01-05T14:47:43.576Z,13.87
2019-01-05T14:50:44.370Z,14.00
2019-01-05T14:53:27.810Z,12.80
2019-01-05T14:56:36.095Z,13.47
2019-01-05T14:59:37.403Z,12.13
2019-01-05T15:02:20.899Z,13.67
2019-01-05T15:05:29.008Z,12.20
2019-01-05T15:08:37.082Z,12.20
2019-01-05T15:11:45.248Z,14.13
2019-01-05T15:14:28.696Z,13.03
2019-01-05T15:17:38.515Z,12.67
2019-01-05T15:20:25.322Z,14.30
2019-01-05T15:23:33.459Z,13.07
2019-01-05T15:26:16.821Z,12.50
2019-01-05T15:29:24.903Z,13.53
2019-01-05T15:35:28.241Z,13.93
2019-01-05T15:38:29.652Z,14.87
2019-01-05T15:41:37.781Z,13.13
2019-01-05T15:44:45.913Z,13.80
2019-01-05T15:47:54.012Z,14.20
2019-01-05T15:50:55.023Z,14.97
2019-01-05T15:54:03.103Z,14.30
2019-01-05T15:57:03.689Z,14.10
2019-01-05T16:00:11.767Z,14.77
2019-01-05T16:15:11.821Z,28.00
2019-01-05T16:18:19.855Z,17.40
2019-01-05T16:21:20.849Z,16.00
2019-01-05T16:24:29.066Z,16.93
2019-01-05T16:27:12.532Z,21.33
2019-01-05T16:30:20.803Z,20.73
2019-01-05T16:33:21.832Z,18.50
2019-01-05T16:42:26.160Z,18.33
2019-01-05T16:45:27.156Z,18.93
2019-01-05T16:48:10.566Z,17.90
2019-01-05T16:51:18.644Z,19.40
2019-01-05T16:54:01.776Z,17.67
2019-01-05T16:57:09.913Z,18.53
2019-01-05T16:59:56.606Z,17.70
2019-01-05T17:03:04.691Z,18.60
2019-01-05T17:06:05.637Z,18.13
2019-01-05T17:09:13.836Z,21.40
2019-01-05T17:12:14.722Z,22.03
2019-01-05T17:18:29.096Z,18.97
2019-01-05T17:21:37.193Z,18.70
2019-01-05T17:24:45.274Z,17.10
2019-01-05T17:27:45.044Z,17.17
2019-01-05T17:33:52.806Z,19.37
2019-01-05T17:36:36.338Z,20.30
2019-01-05T17:39:44.626Z,21.10
2019-01-05T17:48:41.716Z,26.83
2019-01-05T17:51:49.783Z,24.03
2019-01-05T17:54:50.531Z,22.70
2019-01-05T17:57:58.810Z,21.10
2019-01-05T18:00:42.289Z,20.17
2019-01-05T18:03:50.429Z,20.53
2019-01-05T18:06:36.740Z,22.77
2019-01-05T18:09:44.870Z,26.50
2019-01-05T18:12:45.719Z,29.00
2019-01-05T18:15:53.777Z,30.73
2019-01-05T18:18:37.175Z,24.27
2019-01-05T18:24:47.915Z,20.93
2019-01-05T18:27:56.020Z,20.80
2019-01-05T18:33:57.478Z,21.57
2019-01-05T18:40:00.358Z,20.67
2019-01-05T18:43:01.663Z,22.30
2019-01-05T18:46:02.571Z,27.87
2019-01-05T18:55:09.299Z,25.47
2019-01-05T18:58:17.565Z,22.17
2019-01-05T19:01:02.126Z,21.37
2019-01-05T19:04:10.356Z,24.13
2019-01-05T19:07:11.286Z,28.90
2019-01-05T19:10:19.613Z,30.17
2019-01-05T19:13:20.392Z,26.83
2019-01-05T19:16:28.503Z,25.37
2019-01-05T19:19:36.550Z,25.47
2019-01-05T19:22:44.645Z,26.37
2019-01-05T19:25:52.705Z,23.03
2019-01-05T19:29:00.819Z,23.30
2019-01-05T19:32:08.975Z,29.77
2019-01-05T19:35:17.179Z,26.57
2019-01-05T19:38:25.334Z,28.33
2019-01-05T19:44:22.374Z,24.03
2019-01-05T19:47:30.439Z,23.60
2019-01-05T19:50:13.922Z,22.43
2019-01-05T19:53:22.098Z,21.93
2019-01-05T19:56:22.774Z,21.67
2019-01-05T19:59:30.870Z,27.60
2019-01-05T20:02:31.995Z,25.57
2019-01-05T20:05:40.204Z,21.80
2019-01-05T20:08:23.466Z,21.10
2019-01-05T20:11:31.640Z,21.57
2019-01-05T20:14:19.255Z,22.20
2019-01-05T20:17:27.440Z,22.07
2019-01-05T20:20:36.785Z,20.97
2019-01-05T20:23:38.075Z,21.63
2019-01-05T20:26:46.343Z,22.50
2019-01-05T20:29:46.442Z,21.97
2019-01-05T20:32:54.548Z,21.20
2019-01-05T20:35:38.383Z,22.27
2019-01-05T20:38:46.513Z,25.73
2019-01-05T20:41:47.038Z,27.40
2019-01-05T20:44:55.167Z,25.70
2019-01-05T20:56:53.493Z,21.67
2019-01-05T20:59:53.641Z,21.17
2019-01-05T21:05:54.196Z,22.07
2019-01-05T21:08:41.883Z,21.70
2019-01-05T21:11:42.410Z,23.00
2019-01-05T21:14:50.639Z,22.33
2019-01-05T21:17:51.554Z,21.03
2019-01-05T21:20:59.757Z,21.13
2019-01-05T21:23:43.188Z,23.77
2019-01-05T21:29:51.786Z,22.20
2019-01-05T21:32:59.886Z,22.07
2019-01-05T21:35:46.637Z,22.37
2019-01-05T21:38:54.743Z,21.33
2019-01-05T21:41:55.681Z,21.33
2019-01-05T21:45:03.803Z,20.47
2019-01-05T21:48:04.740Z,22.20
2019-01-05T21:50:48.192Z,21.17
2019-01-05T21:59:47.687Z,21.50
2019-01-05T22:09:02.754Z,21.60
2019-01-05T22:12:10.957Z,21.00
2019-01-05T22:15:12.008Z,20.37
2019-01-05T22:17:57.997Z,22.27
2019-01-05T22:21:06.096Z,22.23
2019-01-05T22:23:52.584Z,21.43
2019-01-05T22:27:00.672Z,21.77
2019-01-05T22:29:46.818Z,25.47
2019-01-05T22:32:55.056Z,25.70
2019-01-05T22:39:10.935Z,24.23
2019-01-05T22:42:11.647Z,25.67
2019-01-05T22:45:13.002Z,25.27
2019-01-05T22:48:13.483Z,26.40
2019-01-05T22:54:28.114Z,25.83
2019-01-05T22:57:14.781Z,24.73
2019-01-05T22:59:58.690Z,26.30
2019-01-05T23:03:06.773Z,27.03
2019-01-05T23:06:07.611Z,32.17
2019-01-05T23:09:15.856Z,36.23
2019-01-05T23:12:24.010Z,31.40
2019-01-05T23:15:07.594Z,29.83
2019-01-05T23:18:15.746Z,30.03
2019-01-05T23:27:18.896Z,32.93
2019-01-05T23:30:27.069Z,29.37
2019-01-05T23:33:35.185Z,29.03
2019-01-05T23:36:36.803Z,28.43
2019-01-05T23:39:45.167Z,29.53
2019-01-05T23:45:48.969Z,31.07
2019-01-05T23:48:32.386Z,33.23
2019-01-05T23:51:40.472Z,33.53
2019-01-05T23:54:41.378Z,34.70
2019-01-05T23:57:42.596Z,31.67
